createdAt,value
2017-09-12T00:00:28.395Z,948.79
2017-09-12T00:01:28.418Z,948.77
2017-09-12T00:02:28.434Z,948.79
2017-09-12T00:03:28.455Z,948.79
2017-09-12T00:04:28.479Z,948.76
2017-09-12T00:05:28.548Z,948.79
2017-09-12T00:06:28.518Z,948.78
2017-09-12T00:07:28.538Z,948.75
2017-09-12T00:08:28.560Z,948.8
2017-09-12T00:09:28.581Z,948.73
2017-09-12T00:10:28.603Z,948.76
2017-09-12T00:11:28.627Z,948.76
2017-09-12T00:12:28.646Z,948.79
2017-09-12T00:13:28.667Z,948.76
2017-09-12T00:14:28.690Z,948.8
2017-09-12T00:15:28.710Z,948.73
2017-09-12T00:16:28.729Z,948.74
2017-09-12T00:17:28.777Z,948.75
2017-09-12T00:18:28.773Z,948.83
2017-09-12T00:19:28.791Z,948.79
2017-09-12T00:20:28.812Z,948.8
2017-09-12T00:21:28.836Z,948.8
2017-09-12T00:22:28.856Z,948.79
2017-09-12T00:23:28.877Z,948.8
2017-09-12T00:24:28.898Z,948.81
2017-09-12T00:25:28.920Z,948.82
2017-09-12T00:26:28.967Z,948.79
2017-09-12T00:27:28.962Z,948.84
2017-09-12T00:28:28.982Z,948.84
2017-09-12T00:29:29.005Z,948.82
2017-09-12T00:30:29.025Z,948.82
2017-09-12T00:31:29.050Z,948.78
2017-09-12T00:32:29.199Z,948.78
2017-09-12T00:33:29.088Z,948.84
2017-09-12T00:34:29.110Z,948.87
2017-09-12T00:35:29.131Z,948.85
2017-09-12T00:36:29.153Z,948.85
2017-09-12T00:37:29.226Z,948.8
2017-09-12T00:38:29.195Z,948.86
2017-09-12T00:39:29.240Z,948.85
2017-09-12T00:40:29.237Z,948.86
2017-09-12T00:41:29.257Z,948.82
2017-09-12T00:42:29.279Z,948.78
2017-09-12T00:43:29.299Z,948.79
2017-09-12T00:44:29.321Z,948.8
2017-09-12T00:45:29.343Z,948.74
2017-09-12T00:46:29.363Z,948.75
2017-09-12T00:47:29.384Z,948.77
2017-09-12T00:48:29.407Z,948.77
2017-09-12T00:49:29.427Z,948.72
2017-09-12T00:50:29.447Z,948.75
2017-09-12T00:51:29.475Z,948.72
2017-09-12T00:52:29.541Z,948.75
2017-09-12T00:53:29.512Z,948.77
2017-09-12T00:54:29.537Z,948.78
2017-09-12T00:55:29.563Z,948.78
2017-09-12T00:56:29.575Z,948.78
2017-09-12T00:57:29.595Z,948.76
2017-09-12T00:58:29.624Z,948.81
2017-09-12T00:59:29.642Z,948.82
2017-09-12T01:00:29.659Z,948.76
2017-09-12T01:01:29.679Z,948.79
2017-09-12T01:02:29.701Z,948.76
2017-09-12T01:03:29.730Z,948.76
2017-09-12T01:04:29.742Z,948.77
2017-09-12T01:05:29.764Z,948.75
2017-09-12T01:06:29.784Z,948.76
2017-09-12T01:07:29.855Z,948.77
2017-09-12T01:08:29.827Z,948.74
2017-09-12T01:09:29.850Z,948.74
2017-09-12T01:10:29.868Z,948.79
2017-09-12T01:11:29.894Z,948.75
2017-09-12T01:12:29.910Z,948.73
2017-09-12T01:13:29.931Z,948.78
2017-09-12T01:14:29.962Z,948.73
2017-09-12T01:15:29.972Z,948.79
2017-09-12T01:16:29.992Z,948.76
2017-09-12T01:17:30.018Z,948.74
2017-09-12T01:18:30.035Z,948.73
2017-09-12T01:19:30.060Z,948.7
2017-09-12T01:20:30.077Z,948.68
2017-09-12T01:21:30.099Z,948.71
2017-09-12T01:22:30.125Z,948.72
2017-09-12T01:23:30.141Z,948.63
2017-09-12T01:24:30.161Z,948.67
2017-09-12T01:25:30.182Z,948.64
2017-09-12T01:26:30.201Z,948.62
2017-09-12T01:27:30.224Z,948.6
2017-09-12T01:28:30.244Z,948.62
2017-09-12T01:29:30.263Z,948.62
2017-09-12T01:30:30.286Z,948.63
2017-09-12T01:31:30.311Z,948.62
2017-09-12T01:32:30.328Z,948.62
2017-09-12T01:33:30.351Z,948.62
2017-09-12T01:34:30.368Z,948.64
2017-09-12T01:35:30.389Z,948.65
2017-09-12T01:36:30.410Z,948.66
2017-09-12T01:37:30.432Z,948.59
2017-09-12T01:38:30.452Z,948.6
2017-09-12T01:39:30.475Z,948.6
2017-09-12T01:40:30.495Z,948.6
2017-09-12T01:41:30.517Z,948.53
2017-09-12T01:42:30.538Z,948.5
2017-09-12T01:43:30.558Z,948.52
2017-09-12T01:44:30.589Z,948.53
2017-09-12T01:45:30.602Z,948.56
2017-09-12T01:46:30.621Z,948.53
2017-09-12T01:47:30.643Z,948.58
2017-09-12T01:48:30.663Z,948.62
2017-09-12T01:49:30.685Z,948.63
2017-09-12T01:50:30.708Z,948.62
2017-09-12T01:51:30.727Z,948.58
2017-09-12T01:52:30.748Z,948.59
2017-09-12T01:53:30.771Z,948.56
2017-09-12T01:54:30.789Z,948.59
2017-09-12T01:55:30.810Z,948.56
2017-09-12T01:56:30.860Z,948.55
2017-09-12T01:57:30.858Z,948.52
2017-09-12T01:58:30.892Z,948.48
2017-09-12T01:59:30.895Z,948.5
2017-09-12T02:00:30.916Z,948.51
2017-09-12T02:01:30.939Z,948.51
2017-09-12T02:02:30.958Z,948.53
2017-09-12T02:03:30.981Z,948.56
2017-09-12T02:04:31.002Z,948.54
2017-09-12T02:05:31.023Z,948.57
2017-09-12T02:06:31.044Z,948.53
2017-09-12T02:07:31.065Z,948.54
2017-09-12T02:08:31.087Z,948.47
2017-09-12T02:09:31.106Z,948.5
2017-09-12T02:10:31.133Z,948.5
2017-09-12T02:11:31.148Z,948.53
2017-09-12T02:12:31.171Z,948.57
2017-09-12T02:13:31.193Z,948.59
2017-09-12T02:14:31.211Z,948.56
2017-09-12T02:15:31.232Z,948.56
2017-09-12T02:16:31.254Z,948.61
2017-09-12T02:17:31.277Z,948.65
2017-09-12T02:18:31.296Z,948.6
2017-09-12T02:19:31.317Z,948.64
2017-09-12T02:20:31.337Z,948.66
2017-09-12T02:21:31.360Z,948.65
2017-09-12T02:22:31.379Z,948.69
2017-09-12T02:23:31.400Z,948.7
2017-09-12T02:24:31.421Z,948.66
2017-09-12T02:25:31.440Z,948.67
2017-09-12T02:26:31.465Z,948.69
2017-09-12T02:27:31.490Z,948.73
2017-09-12T02:28:31.504Z,948.77
2017-09-12T02:29:31.528Z,948.77
2017-09-12T02:30:31.547Z,948.73
2017-09-12T02:31:31.570Z,948.71
2017-09-12T02:32:31.589Z,948.7
2017-09-12T02:33:31.611Z,948.72
2017-09-12T02:34:31.641Z,948.72
2017-09-12T02:35:31.656Z,948.72
2017-09-12T02:36:31.673Z,948.71
2017-09-12T02:37:31.699Z,948.67
2017-09-12T02:38:31.768Z,948.65
2017-09-12T02:39:31.734Z,948.66
2017-09-12T02:40:31.764Z,948.64
2017-09-12T02:41:31.778Z,948.64
2017-09-12T02:42:31.796Z,948.63
2017-09-12T02:43:31.816Z,948.63
2017-09-12T02:44:31.844Z,948.6
2017-09-12T02:45:31.859Z,948.62
2017-09-12T02:46:31.879Z,948.57
2017-09-12T02:47:31.899Z,948.57
2017-09-12T02:48:31.920Z,948.55
2017-09-12T02:49:31.945Z,948.57
2017-09-12T02:50:32.014Z,948.6
2017-09-12T02:51:31.984Z,948.59
2017-09-12T02:52:32.011Z,948.59
2017-09-12T02:53:32.027Z,948.61
2017-09-12T02:54:32.047Z,948.62
2017-09-12T02:55:32.069Z,948.61
2017-09-12T02:56:32.091Z,948.62
2017-09-12T02:57:32.111Z,948.65
2017-09-12T02:58:32.132Z,948.62
2017-09-12T02:59:32.156Z,948.62
2017-09-12T03:00:32.173Z,948.63
2017-09-12T03:01:32.194Z,948.62
2017-09-12T03:02:32.216Z,948.61
2017-09-12T03:03:32.237Z,948.62
2017-09-12T03:04:32.272Z,948.66
2017-09-12T03:05:32.281Z,948.62
2017-09-12T03:06:32.304Z,948.66
2017-09-12T03:07:32.329Z,948.64
2017-09-12T03:08:32.348Z,948.64
2017-09-12T03:09:32.418Z,948.64
2017-09-12T03:10:32.388Z,948.59
2017-09-12T03:11:32.408Z,948.63
2017-09-12T03:12:32.429Z,948.58
2017-09-12T03:13:32.452Z,948.61
2017-09-12T03:14:32.473Z,948.59
2017-09-12T03:15:32.494Z,948.62
2017-09-12T03:16:32.515Z,948.62
2017-09-12T03:17:32.539Z,948.59
2017-09-12T03:18:32.558Z,948.53
2017-09-12T03:19:32.580Z,948.56
2017-09-12T03:20:32.602Z,948.54
2017-09-12T03:21:32.626Z,948.54
2017-09-12T03:22:32.647Z,948.53
2017-09-12T03:23:32.670Z,948.53
2017-09-12T03:24:32.689Z,948.5
2017-09-12T03:25:32.710Z,948.47
2017-09-12T03:26:32.732Z,948.47
2017-09-12T03:27:32.754Z,948.46
2017-09-12T03:28:32.776Z,948.4
2017-09-12T03:29:32.799Z,948.35
2017-09-12T03:30:32.818Z,948.37
2017-09-12T03:31:32.844Z,948.33
2017-09-12T03:32:32.861Z,948.33
2017-09-12T03:33:32.887Z,948.36
2017-09-12T03:34:32.902Z,948.39
2017-09-12T03:35:32.938Z,948.38
2017-09-12T03:36:32.947Z,948.43
2017-09-12T03:37:32.966Z,948.42
2017-09-12T03:38:32.989Z,948.46
2017-09-12T03:39:33.021Z,948.42
2017-09-12T03:40:33.030Z,948.44
2017-09-12T03:41:33.053Z,948.41
2017-09-12T03:42:33.075Z,948.42
2017-09-12T03:43:33.097Z,948.4
2017-09-12T03:44:33.119Z,948.42
2017-09-12T03:45:33.144Z,948.42
2017-09-12T03:46:33.159Z,948.41
2017-09-12T03:47:33.182Z,948.41
2017-09-12T03:48:33.205Z,948.39
2017-09-12T03:49:33.224Z,948.37
2017-09-12T03:50:33.256Z,948.39
2017-09-12T03:51:33.267Z,948.35
2017-09-12T03:52:33.288Z,948.34
2017-09-12T03:53:33.308Z,948.36
2017-09-12T03:54:33.334Z,948.37
2017-09-12T03:55:33.350Z,948.35
2017-09-12T03:56:33.372Z,948.37
2017-09-12T03:57:33.394Z,948.37
2017-09-12T03:58:33.442Z,948.4
2017-09-12T03:59:33.436Z,948.39
2017-09-12T04:00:33.460Z,948.4
2017-09-12T04:01:33.482Z,948.39
2017-09-12T04:02:33.499Z,948.38
2017-09-12T04:03:33.522Z,948.41
2017-09-12T04:04:33.543Z,948.37
2017-09-12T04:05:33.564Z,948.34
2017-09-12T04:06:33.583Z,948.36
2017-09-12T04:07:33.604Z,948.35
2017-09-12T04:08:33.627Z,948.32
2017-09-12T04:09:33.653Z,948.33
2017-09-12T04:10:33.667Z,948.33
2017-09-12T04:11:33.689Z,948.29
2017-09-12T04:12:33.711Z,948.35
2017-09-12T04:13:33.732Z,948.33
2017-09-12T04:14:33.751Z,948.33
2017-09-12T04:15:33.774Z,948.38
2017-09-12T04:16:33.798Z,948.39
2017-09-12T04:17:33.815Z,948.35
2017-09-12T04:18:33.841Z,948.32
2017-09-12T04:19:33.859Z,948.31
2017-09-12T04:20:33.880Z,948.32
2017-09-12T04:21:33.898Z,948.34
2017-09-12T04:22:33.922Z,948.33
2017-09-12T04:23:33.943Z,948.29
2017-09-12T04:24:33.961Z,948.27
2017-09-12T04:25:33.982Z,948.29
2017-09-12T04:26:34.005Z,948.29
2017-09-12T04:27:34.026Z,948.35
2017-09-12T04:28:34.046Z,948.39
2017-09-12T04:29:34.071Z,948.39
2017-09-12T04:30:34.089Z,948.39
2017-09-12T04:31:34.109Z,948.38
2017-09-12T04:32:34.129Z,948.47
2017-09-12T04:33:34.327Z,948.45
2017-09-12T04:34:34.171Z,948.52
2017-09-12T04:35:34.203Z,948.55
2017-09-12T04:36:34.227Z,948.51
2017-09-12T04:37:34.235Z,948.53
2017-09-12T04:38:34.306Z,948.52
2017-09-12T04:39:34.278Z,948.53
2017-09-12T04:40:34.298Z,948.49
2017-09-12T04:41:34.319Z,948.54
2017-09-12T04:42:34.339Z,948.55
2017-09-12T04:43:34.364Z,948.49
2017-09-12T04:44:34.380Z,948.57
2017-09-12T04:45:34.402Z,948.56
2017-09-12T04:46:34.423Z,948.57
2017-09-12T04:47:34.444Z,948.54
2017-09-12T04:48:34.463Z,948.52
2017-09-12T04:49:34.485Z,948.51
2017-09-12T04:50:34.511Z,948.55
2017-09-12T04:51:34.526Z,948.45
2017-09-12T04:52:34.608Z,948.48
2017-09-12T04:53:34.568Z,948.47
2017-09-12T04:54:34.640Z,948.53
2017-09-12T04:55:34.611Z,948.53
2017-09-12T04:56:34.699Z,948.49
2017-09-12T04:57:34.653Z,948.52
2017-09-12T04:58:34.673Z,948.52
2017-09-12T04:59:34.695Z,948.48
2017-09-12T05:00:34.716Z,948.56
2017-09-12T05:01:34.736Z,948.48
2017-09-12T05:02:34.763Z,948.51
2017-09-12T05:03:34.785Z,948.57
2017-09-12T05:04:34.800Z,948.53
2017-09-12T05:05:34.820Z,948.54
2017-09-12T05:06:34.858Z,948.54
2017-09-12T05:07:34.865Z,948.59
2017-09-12T05:08:34.882Z,948.61
2017-09-12T05:09:34.912Z,948.68
2017-09-12T05:10:34.928Z,948.67
2017-09-12T05:11:34.953Z,948.68
2017-09-12T05:12:34.967Z,948.7
2017-09-12T05:13:34.985Z,948.71
2017-09-12T05:14:35.014Z,948.71
2017-09-12T05:15:35.029Z,948.72
2017-09-12T05:16:35.049Z,948.71
2017-09-12T05:17:35.070Z,948.75
2017-09-12T05:18:35.091Z,948.67
2017-09-12T05:19:35.111Z,948.68
2017-09-12T05:20:35.139Z,948.68
2017-09-12T05:21:35.153Z,948.67
2017-09-12T05:22:35.175Z,948.71
2017-09-12T05:23:35.193Z,948.72
2017-09-12T05:24:35.217Z,948.65
2017-09-12T05:25:35.239Z,948.7
2017-09-12T05:26:35.258Z,948.68
2017-09-12T05:27:35.279Z,948.7
2017-09-12T05:28:35.350Z,948.71
2017-09-12T05:29:35.332Z,948.7
2017-09-12T05:30:35.341Z,948.77
2017-09-12T05:31:35.362Z,948.73
2017-09-12T05:32:35.387Z,948.8
2017-09-12T05:33:35.404Z,948.8
2017-09-12T05:34:35.427Z,948.8
2017-09-12T05:35:35.446Z,948.85
2017-09-12T05:36:35.467Z,948.83
2017-09-12T05:37:35.487Z,948.9
2017-09-12T05:38:35.509Z,948.93
2017-09-12T05:39:35.530Z,948.96
2017-09-12T05:40:35.553Z,948.97
2017-09-12T05:41:35.571Z,949.02
2017-09-12T05:42:35.592Z,949.04
2017-09-12T05:43:35.616Z,949.14
2017-09-12T05:44:35.639Z,949.02
2017-09-12T05:45:35.654Z,949.07
2017-09-12T05:46:35.676Z,949.1
2017-09-12T05:47:35.747Z,949.06
2017-09-12T05:48:35.721Z,949.08
2017-09-12T05:49:35.739Z,949.09
2017-09-12T05:50:35.761Z,949.06
2017-09-12T05:51:35.780Z,949
2017-09-12T05:52:35.805Z,949.05
2017-09-12T05:53:35.822Z,949.02
2017-09-12T05:54:35.844Z,948.95
2017-09-12T05:55:35.864Z,948.96
2017-09-12T05:56:35.884Z,948.99
2017-09-12T05:57:35.907Z,948.94
2017-09-12T05:58:35.928Z,948.98
2017-09-12T05:59:35.945Z,948.95
2017-09-12T06:00:35.966Z,948.92
2017-09-12T06:01:35.988Z,949.04
2017-09-12T06:02:36.013Z,949.04
2017-09-12T06:03:36.030Z,949.1
2017-09-12T06:04:36.100Z,949.15
2017-09-12T06:05:36.075Z,949.15
2017-09-12T06:06:36.093Z,949.1
2017-09-12T06:07:36.113Z,949.18
2017-09-12T06:08:36.133Z,949.11
2017-09-12T06:09:36.156Z,949.12
2017-09-12T06:10:36.180Z,949.18
2017-09-12T06:11:36.199Z,949.16
2017-09-12T06:12:36.219Z,949.22
2017-09-12T06:13:36.249Z,949.21
2017-09-12T06:14:36.260Z,949.25
2017-09-12T06:15:36.302Z,949.25
2017-09-12T06:16:36.306Z,949.28
2017-09-12T06:17:36.322Z,949.26
2017-09-12T06:18:36.344Z,949.22
2017-09-12T06:19:36.364Z,949.23
2017-09-12T06:20:36.389Z,949.26
2017-09-12T06:21:36.408Z,949.28
2017-09-12T06:22:36.427Z,949.22
2017-09-12T06:23:36.448Z,949.27
2017-09-12T06:24:36.470Z,949.28
2017-09-12T06:25:36.491Z,949.29
2017-09-12T06:26:36.514Z,949.29
2017-09-12T06:27:36.532Z,949.28
2017-09-12T06:28:36.553Z,949.3
2017-09-12T06:29:36.580Z,949.32
2017-09-12T06:30:36.598Z,949.31
2017-09-12T06:31:36.616Z,949.31
2017-09-12T06:32:36.638Z,949.31
2017-09-12T06:33:36.658Z,949.3
2017-09-12T06:34:36.679Z,949.34
2017-09-12T06:35:36.704Z,949.33
2017-09-12T06:36:36.719Z,949.33
2017-09-12T06:37:36.741Z,949.35
2017-09-12T06:38:36.763Z,949.38
2017-09-12T06:39:36.782Z,949.39
2017-09-12T06:40:36.856Z,949.37
2017-09-12T06:41:36.826Z,949.38
2017-09-12T06:42:36.852Z,949.39
2017-09-12T06:43:36.868Z,949.38
2017-09-12T06:44:36.893Z,949.43
2017-09-12T06:45:36.911Z,949.4
2017-09-12T06:46:36.929Z,949.45
2017-09-12T06:47:36.949Z,949.4
2017-09-12T06:48:36.978Z,949.4
2017-09-12T06:49:37.001Z,949.42
2017-09-12T06:50:37.011Z,949.48
2017-09-12T06:51:37.036Z,949.45
2017-09-12T06:52:37.058Z,949.43
2017-09-12T06:53:37.094Z,949.43
2017-09-12T06:54:37.099Z,949.41
2017-09-12T06:55:37.115Z,949.43
2017-09-12T06:56:37.186Z,949.43
2017-09-12T06:57:37.160Z,949.46
2017-09-12T06:58:37.177Z,949.44
2017-09-12T06:59:37.197Z,949.48
2017-09-12T07:00:37.219Z,949.46
2017-09-12T07:01:37.238Z,949.46
2017-09-12T07:02:37.260Z,949.48
2017-09-12T07:03:37.283Z,949.5
2017-09-12T07:04:37.302Z,949.49
2017-09-12T07:05:37.321Z,949.52
2017-09-12T07:06:37.343Z,949.49
2017-09-12T07:07:37.362Z,949.52
2017-09-12T07:08:37.391Z,949.51
2017-09-12T07:09:37.404Z,949.5
2017-09-12T07:10:37.424Z,949.55
2017-09-12T07:11:37.497Z,949.57
2017-09-12T07:12:37.467Z,949.55
2017-09-12T07:13:37.487Z,949.6
2017-09-12T07:14:37.508Z,949.61
2017-09-12T07:15:37.532Z,949.64
2017-09-12T07:16:37.552Z,949.67
2017-09-12T07:17:37.570Z,949.67
2017-09-12T07:18:37.596Z,949.72
2017-09-12T07:19:37.611Z,949.7
2017-09-12T07:20:37.633Z,949.77
2017-09-12T07:21:37.656Z,949.74
2017-09-12T07:22:37.671Z,949.78
2017-09-12T07:23:37.691Z,949.79
2017-09-12T07:24:37.711Z,949.83
2017-09-12T07:25:37.733Z,949.8
2017-09-12T07:26:37.804Z,949.82
2017-09-12T07:27:37.774Z,949.82
2017-09-12T07:28:37.793Z,949.87
2017-09-12T07:29:37.814Z,949.86
2017-09-12T07:30:37.835Z,949.92
2017-09-12T07:31:37.854Z,949.87
2017-09-12T07:32:37.875Z,949.96
2017-09-12T07:33:37.904Z,949.94
2017-09-12T07:34:37.919Z,950
2017-09-12T07:35:37.936Z,950.02
2017-09-12T07:36:37.962Z,949.95
2017-09-12T07:37:37.979Z,949.99
2017-09-12T07:38:38.001Z,950
2017-09-12T07:39:38.020Z,949.96
2017-09-12T07:40:38.041Z,949.93
2017-09-12T07:41:38.110Z,949.95
2017-09-12T07:42:38.080Z,949.98
2017-09-12T07:43:38.111Z,950.02
2017-09-12T07:44:38.122Z,950.05
2017-09-12T07:45:38.141Z,950.1
2017-09-12T07:46:38.165Z,950.13
2017-09-12T07:47:38.183Z,950.11
2017-09-12T07:48:38.208Z,950.13
2017-09-12T07:49:38.224Z,950.17
2017-09-12T07:50:38.248Z,950.18
2017-09-12T07:51:38.266Z,950.19
2017-09-12T07:52:38.288Z,950.18
2017-09-12T07:53:38.305Z,950.23
2017-09-12T07:54:38.328Z,950.22
2017-09-12T07:55:38.348Z,950.23
2017-09-12T07:56:38.418Z,950.22
2017-09-12T07:57:38.388Z,950.28
2017-09-12T07:58:38.409Z,950.28
2017-09-12T07:59:38.491Z,950.33
2017-09-12T08:00:38.450Z,950.33
2017-09-12T08:01:38.507Z,950.32
2017-09-12T08:02:39.113Z,950.35
2017-09-12T08:03:39.150Z,950.34
2017-09-12T08:04:38.751Z,950.31
2017-09-12T08:05:39.122Z,950.32
2017-09-12T08:06:39.168Z,950.36
2017-09-12T08:07:40.610Z,950.35
2017-09-12T08:08:39.206Z,950.3
2017-09-12T08:09:39.014Z,950.31
2017-09-12T08:10:39.091Z,950.33
2017-09-12T08:11:39.104Z,950.35
2017-09-12T08:12:38.702Z,950.42
2017-09-12T08:13:38.722Z,950.42
2017-09-12T08:14:38.739Z,950.42
2017-09-12T08:15:38.762Z,950.5
2017-09-12T08:16:38.782Z,950.47
2017-09-12T08:17:38.808Z,950.51
2017-09-12T08:18:38.837Z,950.49
2017-09-12T08:19:38.846Z,950.5
2017-09-12T08:20:38.867Z,950.57
2017-09-12T08:21:38.893Z,950.56
2017-09-12T08:22:38.910Z,950.59
2017-09-12T08:23:38.934Z,950.55
2017-09-12T08:24:38.954Z,950.58
2017-09-12T08:25:38.971Z,950.62
2017-09-12T08:26:38.991Z,950.64
2017-09-12T08:27:39.011Z,950.72
2017-09-12T08:28:39.087Z,950.7
2017-09-12T08:29:39.052Z,950.66
2017-09-12T08:30:39.075Z,950.65
2017-09-12T08:31:39.095Z,950.68
2017-09-12T08:32:39.117Z,950.68
2017-09-12T08:33:39.136Z,950.65
2017-09-12T08:34:39.156Z,950.73
2017-09-12T08:35:39.178Z,950.68
2017-09-12T08:36:39.200Z,950.7
2017-09-12T08:37:39.220Z,950.75
2017-09-12T08:38:39.242Z,950.67
2017-09-12T08:39:39.263Z,950.68
2017-09-12T08:40:39.283Z,950.72
2017-09-12T08:41:39.302Z,950.72
2017-09-12T08:42:39.323Z,950.68
2017-09-12T08:43:39.344Z,950.75
2017-09-12T08:44:39.366Z,950.76
2017-09-12T08:45:39.389Z,950.81
2017-09-12T08:46:39.407Z,950.77
2017-09-12T08:47:39.427Z,950.81
2017-09-12T08:48:39.451Z,950.85
2017-09-12T08:49:39.467Z,950.82
2017-09-12T08:50:39.489Z,950.81
2017-09-12T08:51:39.511Z,950.82
2017-09-12T08:52:39.527Z,950.91
2017-09-12T08:53:39.550Z,950.79
2017-09-12T08:54:39.619Z,950.75
2017-09-12T08:55:39.588Z,950.82
2017-09-12T08:56:39.610Z,950.81
2017-09-12T08:57:39.631Z,950.8
2017-09-12T08:58:39.652Z,950.79
2017-09-12T08:59:39.671Z,950.83
2017-09-12T09:00:39.692Z,950.79
2017-09-12T09:01:39.714Z,950.8
2017-09-12T09:02:39.743Z,950.86
2017-09-12T09:03:39.758Z,950.82
2017-09-12T09:04:39.779Z,950.83
2017-09-12T09:05:39.795Z,950.85
2017-09-12T09:06:39.822Z,950.87
2017-09-12T09:07:39.839Z,950.82
2017-09-12T09:08:39.857Z,950.85
2017-09-12T09:09:39.877Z,950.87
2017-09-12T09:10:40.025Z,950.85
2017-09-12T09:11:39.921Z,950.88
2017-09-12T09:12:39.942Z,950.9
2017-09-12T09:13:39.963Z,950.91
2017-09-12T09:14:39.988Z,950.92
2017-09-12T09:15:40.005Z,950.91
2017-09-12T09:16:40.026Z,950.89
2017-09-12T09:17:40.045Z,950.95
2017-09-12T09:18:40.073Z,950.93
2017-09-12T09:19:40.091Z,950.9
2017-09-12T09:20:40.109Z,950.93
2017-09-12T09:21:40.132Z,950.93
2017-09-12T09:22:40.157Z,950.85
2017-09-12T09:23:40.176Z,950.85
2017-09-12T09:24:40.194Z,950.93
2017-09-12T09:25:40.218Z,950.9
2017-09-12T09:26:40.237Z,950.84
2017-09-12T09:27:40.259Z,950.88
2017-09-12T09:28:40.283Z,950.96
2017-09-12T09:29:40.308Z,950.9
2017-09-12T09:30:40.323Z,950.89
2017-09-12T09:31:40.394Z,950.91
2017-09-12T09:32:40.365Z,950.95
2017-09-12T09:33:40.390Z,950.88
2017-09-12T09:34:40.408Z,950.89
2017-09-12T09:35:40.430Z,950.95
2017-09-12T09:36:40.451Z,950.94
2017-09-12T09:37:40.473Z,950.93
2017-09-12T09:38:40.494Z,951.02
2017-09-12T09:39:40.517Z,951.05
2017-09-12T09:40:40.545Z,951.04
2017-09-12T09:41:40.564Z,951.13
2017-09-12T09:42:40.583Z,951
2017-09-12T09:43:40.604Z,951.07
2017-09-12T09:44:40.625Z,951.11
2017-09-12T09:45:40.646Z,951.12
2017-09-12T09:46:40.717Z,951.14
2017-09-12T09:47:40.692Z,951.17
2017-09-12T09:48:40.713Z,951.15
2017-09-12T09:49:40.733Z,951.17
2017-09-12T09:50:40.755Z,951.2
2017-09-12T09:51:40.776Z,951.27
2017-09-12T09:52:40.799Z,951.28
2017-09-12T09:53:40.819Z,951.38
2017-09-12T09:54:40.841Z,951.24
2017-09-12T09:55:40.871Z,951.26
2017-09-12T09:56:40.889Z,951.34
2017-09-12T09:57:40.906Z,951.3
2017-09-12T09:58:40.930Z,951.22
2017-09-12T09:59:40.958Z,951.32
2017-09-12T10:00:40.970Z,951.31
2017-09-12T10:01:41.015Z,951.36
2017-09-12T10:02:41.018Z,951.38
2017-09-12T10:03:41.043Z,951.3
2017-09-12T10:04:41.059Z,951.48
2017-09-12T10:05:41.080Z,951.37
2017-09-12T10:06:41.102Z,951.45
2017-09-12T10:07:41.127Z,951.44
2017-09-12T10:08:41.145Z,951.48
2017-09-12T10:09:41.166Z,951.48
2017-09-12T10:10:41.189Z,951.48
2017-09-12T10:11:41.214Z,951.48
2017-09-12T10:12:41.233Z,951.49
2017-09-12T10:13:41.252Z,951.47
2017-09-12T10:14:41.276Z,951.5
2017-09-12T10:15:41.300Z,951.45
2017-09-12T10:16:41.319Z,951.54
2017-09-12T10:17:41.342Z,951.52
2017-09-12T10:18:41.365Z,951.47
2017-09-12T10:19:41.387Z,951.51
2017-09-12T10:20:41.406Z,951.53
2017-09-12T10:21:41.481Z,951.55
2017-09-12T10:22:41.453Z,951.57
2017-09-12T10:23:41.474Z,951.62
2017-09-12T10:24:41.496Z,951.55
2017-09-12T10:25:41.518Z,951.55
2017-09-12T10:26:41.547Z,951.58
2017-09-12T10:27:41.570Z,951.52
2017-09-12T10:28:41.588Z,951.5
2017-09-12T10:29:41.609Z,951.47
2017-09-12T10:30:41.633Z,951.54
2017-09-12T10:31:41.659Z,951.55
2017-09-12T10:32:41.681Z,951.56
2017-09-12T10:33:41.703Z,951.49
2017-09-12T10:34:41.726Z,951.55
2017-09-12T10:35:41.748Z,951.61
2017-09-12T10:36:41.821Z,951.48
2017-09-12T10:37:41.796Z,951.55
2017-09-12T10:38:41.819Z,951.52
2017-09-12T10:39:41.842Z,951.53
2017-09-12T10:40:41.869Z,951.52
2017-09-12T10:41:41.889Z,951.52
2017-09-12T10:42:41.912Z,951.48
2017-09-12T10:43:41.936Z,951.49
2017-09-12T10:44:41.959Z,951.5
2017-09-12T10:45:41.983Z,951.53
2017-09-12T10:46:42.006Z,951.46
2017-09-12T10:47:42.031Z,951.53
2017-09-12T10:48:42.054Z,951.46
2017-09-12T10:49:42.075Z,951.53
2017-09-12T10:50:42.104Z,951.56
2017-09-12T10:51:42.174Z,951.54
2017-09-12T10:52:42.145Z,951.55
2017-09-12T10:53:42.175Z,951.58
2017-09-12T10:54:42.194Z,951.56
2017-09-12T10:55:42.219Z,951.54
2017-09-12T10:56:42.240Z,951.56
2017-09-12T10:57:42.273Z,951.58
2017-09-12T10:58:42.294Z,951.63
2017-09-12T10:59:42.310Z,951.56
2017-09-12T11:00:42.337Z,951.56
2017-09-12T11:01:42.361Z,951.53
2017-09-12T11:02:42.383Z,951.57
2017-09-12T11:03:42.407Z,951.52
2017-09-12T11:04:42.439Z,951.46
2017-09-12T11:05:42.454Z,951.49
2017-09-12T11:06:42.526Z,951.49
2017-09-12T11:07:42.500Z,951.46
2017-09-12T11:08:42.523Z,951.52
2017-09-12T11:09:42.547Z,951.57
2017-09-12T11:10:42.570Z,951.6
2017-09-12T11:11:42.594Z,951.5
2017-09-12T11:12:42.616Z,951.53
2017-09-12T11:13:42.645Z,951.58
2017-09-12T11:14:42.661Z,951.64
2017-09-12T11:15:42.687Z,951.65
2017-09-12T11:16:42.706Z,951.64
2017-09-12T11:17:42.734Z,951.65
2017-09-12T11:18:42.755Z,951.64
2017-09-12T11:19:42.774Z,951.67
2017-09-12T11:20:42.795Z,951.7
2017-09-12T11:21:42.818Z,951.69
2017-09-12T11:22:42.843Z,951.65
2017-09-12T11:23:42.863Z,951.64
2017-09-12T11:24:42.896Z,951.65
2017-09-12T11:25:42.904Z,951.66
2017-09-12T11:26:42.926Z,951.73
2017-09-12T11:27:42.950Z,951.74
2017-09-12T11:28:42.982Z,951.68
2017-09-12T11:29:42.989Z,951.78
2017-09-12T11:30:43.010Z,951.84
2017-09-12T11:31:43.037Z,951.79
2017-09-12T11:32:43.051Z,951.83
2017-09-12T11:33:43.074Z,951.89
2017-09-12T11:34:43.095Z,951.86
2017-09-12T11:35:43.116Z,951.87
2017-09-12T11:36:43.139Z,951.96
2017-09-12T11:37:43.162Z,951.82
2017-09-12T11:38:43.184Z,951.83
2017-09-12T11:39:43.251Z,951.85
2017-09-12T11:40:43.227Z,951.84
2017-09-12T11:41:43.244Z,951.83
2017-09-12T11:42:43.267Z,951.79
2017-09-12T11:43:43.289Z,951.82
2017-09-12T11:44:43.316Z,951.83
2017-09-12T11:45:43.334Z,951.75
2017-09-12T11:46:43.361Z,951.84
2017-09-12T11:47:43.380Z,951.85
2017-09-12T11:48:43.400Z,951.86
2017-09-12T11:49:43.483Z,951.88
2017-09-12T11:50:43.444Z,951.91
2017-09-12T11:51:43.488Z,951.95
2017-09-12T11:52:43.490Z,951.99
2017-09-12T11:53:43.510Z,951.96
2017-09-12T11:54:43.533Z,951.93
2017-09-12T11:55:43.554Z,951.97
2017-09-12T11:56:43.576Z,951.94
2017-09-12T11:57:43.596Z,951.93
2017-09-12T11:58:43.619Z,951.9
2017-09-12T11:59:43.643Z,951.88
2017-09-12T12:00:43.669Z,951.9
2017-09-12T12:01:43.685Z,951.92
2017-09-12T12:02:43.708Z,951.89
2017-09-12T12:03:43.728Z,951.91
2017-09-12T12:04:43.750Z,951.9
2017-09-12T12:05:43.770Z,951.89
2017-09-12T12:06:43.848Z,951.88
2017-09-12T12:07:43.816Z,951.87
2017-09-12T12:08:43.843Z,951.87
2017-09-12T12:09:43.858Z,951.83
2017-09-12T12:10:43.880Z,951.88
2017-09-12T12:11:43.900Z,951.85
2017-09-12T12:12:43.922Z,951.92
2017-09-12T12:13:43.944Z,951.93
2017-09-12T12:14:43.991Z,951.96
2017-09-12T12:15:43.988Z,951.98
2017-09-12T12:16:44.010Z,951.93
2017-09-12T12:17:44.040Z,951.96
2017-09-12T12:18:44.052Z,952.06
2017-09-12T12:19:44.073Z,952.09
2017-09-12T12:20:44.097Z,952.09
2017-09-12T12:21:44.170Z,952.11
2017-09-12T12:22:44.142Z,952.14
2017-09-12T12:23:44.158Z,952.18
2017-09-12T12:24:44.185Z,952.11
2017-09-12T12:25:44.814Z,952.1
2017-09-12T12:26:44.230Z,952.01
2017-09-12T12:27:44.252Z,952.02
2017-09-12T12:28:44.266Z,952
2017-09-12T12:29:44.286Z,952.04
2017-09-12T12:30:44.311Z,952.04
2017-09-12T12:31:44.330Z,952.14